Metars

EGJB - Guernsey Airport
Distance from station: SW 8km

Current
Few Clouds
Few Clouds
 Wind from WSW
Wind: WSW 9 mph , 15 km/h
Temperature: 15°C
Dew Point: 15°C
Humidity: 100%
Barometer: 1023 hPa
Clouds: Few Clouds
Visibility: 6 miles , 10 km
Cloud details: Few Clouds 183 m
2018/08/18 02:50 EGJB 180250Z 24008KT 9999 FEW006 15/15 Q1023
EGJA - Alderney Airport
Distance from station: NE 37km

NOT Current
Clear
Clear
 Wind from W
Wind: W 14 mph , 22 km/h
Temperature: 17°C
Dew Point: 13°C
Humidity: 77%
Barometer: 1023 hPa
Summary: Clear
Visibility: greater than 7 miles , 10 km
2018/08/17 17:50 EGJA 171750Z 26012KT CAVOK 17/13 Q1023
EGJJ - Jersey Airport
Distance from station: SE 37km

Current
Partly Cloudy
Partly Cloudy
 Wind from W
Wind: W 12 mph , 19 km/h
Temperature: 16°C
Dew Point: 14°C
Humidity: 88%
Barometer: 1023 hPa
Clouds: Partly Cloudy
Visibility: 6 miles , 10 km
Cloud details: Partly Cloudy 335 m
2018/08/18 02:50 EGJJ 180250Z AUTO 26010KT 9999 SCT011/// 16/14 Q1023